createdAt,value
2019-04-16T00:01:49.862Z,35.68
2019-04-16T00:04:50.514Z,35.59
2019-04-16T00:07:40.028Z,36.01
2019-04-16T00:10:31.569Z,35.86
2019-04-16T00:13:16.746Z,35.67
2019-04-16T00:15:46.031Z,35.68
2019-04-16T00:18:18.437Z,35.56
2019-04-16T00:21:11.338Z,35.85
2019-04-16T00:24:18.510Z,35.83
2019-04-16T00:26:59.930Z,35.79
2019-04-16T00:29:32.954Z,36.14
2019-04-16T00:32:07.842Z,36.32
2019-04-16T00:34:35.637Z,36.65
2019-04-16T00:37:04.953Z,36.67
2019-04-16T00:39:34.271Z,36.99
2019-04-16T00:42:03.694Z,37.29
2019-04-16T00:44:32.956Z,37.26
2019-04-16T00:47:02.264Z,37.18
2019-04-16T00:49:31.542Z,37.48
2019-04-16T00:52:05.896Z,37.44
2019-04-16T00:54:33.348Z,37.82
2019-04-16T00:57:02.711Z,37.84
2019-04-16T00:59:34.101Z,37.99
2019-04-16T01:02:05.807Z,38.30
2019-04-16T01:04:35.138Z,38.30
2019-04-16T01:07:04.582Z,37.81
2019-04-16T01:09:33.934Z,38.39
2019-04-16T01:12:03.226Z,38.51
2019-04-16T01:14:32.529Z,38.76
2019-04-16T01:17:04.849Z,38.81
2019-04-16T01:19:32.858Z,38.51
2019-04-16T01:22:02.353Z,38.54
2019-04-16T01:24:34.409Z,38.47
2019-04-16T01:27:03.809Z,38.56
2019-04-16T01:29:34.660Z,38.98
2019-04-16T01:32:21.473Z,38.85
2019-04-16T01:35:28.184Z,39.05
2019-04-16T01:38:20.557Z,38.57
2019-04-16T01:41:04.171Z,38.37
2019-04-16T01:43:33.485Z,38.53
2019-04-16T01:46:02.890Z,38.55
2019-04-16T01:48:32.159Z,38.73
2019-04-16T01:51:01.446Z,38.72
2019-04-16T01:53:30.712Z,38.71
2019-04-16T01:56:00.043Z,39.04
2019-04-16T01:58:33.642Z,38.92
2019-04-16T02:01:01.860Z,38.80
2019-04-16T02:03:31.161Z,39.06
2019-04-16T02:06:00.439Z,39.22
2019-04-16T02:08:31.098Z,39.39
2019-04-16T02:11:00.761Z,39.26
2019-04-16T02:13:30.067Z,39.20
2019-04-16T02:15:59.611Z,39.36
2019-04-16T02:18:29.797Z,39.30
2019-04-16T02:20:59.933Z,39.42
2019-04-16T02:23:29.346Z,39.30
2019-04-16T02:25:58.684Z,39.46
2019-04-16T02:28:28.952Z,39.48
2019-04-16T02:31:00.898Z,39.32
2019-04-16T02:33:30.165Z,40.08
2019-04-16T02:36:00.897Z,39.92
2019-04-16T02:38:30.169Z,39.83
2019-04-16T02:40:59.633Z,40.36
2019-04-16T02:43:28.906Z,40.70
2019-04-16T02:45:59.764Z,41.05
2019-04-16T02:48:29.177Z,41.03
2019-04-16T02:51:09.435Z,41.36
2019-04-16T02:54:14.147Z,41.65
2019-04-16T02:57:01.220Z,41.61
2019-04-16T02:59:34.051Z,41.69
2019-04-16T03:02:37.815Z,41.85
2019-04-16T03:05:12.861Z,41.82
2019-04-16T03:07:50.903Z,41.72
2019-04-16T03:10:20.248Z,42.00
2019-04-16T03:12:52.162Z,42.76
2019-04-16T03:15:41.393Z,42.47
2019-04-16T03:18:11.697Z,42.43
2019-04-16T03:20:42.028Z,42.75
2019-04-16T03:23:11.331Z,42.75
2019-04-16T03:25:41.361Z,43.08
2019-04-16T03:28:12.285Z,43.07
2019-04-16T03:30:42.887Z,42.96
2019-04-16T03:33:14.335Z,42.89
2019-04-16T03:35:44.506Z,43.28
2019-04-16T03:38:16.341Z,43.12
2019-04-16T03:40:45.648Z,43.13
2019-04-16T03:43:16.171Z,43.65
2019-04-16T03:45:45.472Z,43.29
2019-04-16T03:48:14.770Z,43.70
2019-04-16T03:50:44.105Z,43.34
2019-04-16T03:53:16.367Z,43.33
2019-04-16T03:55:44.397Z,43.99
2019-04-16T03:58:13.677Z,43.97
2019-04-16T04:00:44.182Z,43.78
2019-04-16T04:03:13.978Z,43.98
2019-04-16T04:05:45.049Z,44.45
2019-04-16T04:08:17.383Z,44.14
2019-04-16T04:10:45.402Z,44.29
2019-04-16T04:13:18.348Z,44.35
2019-04-16T04:15:45.744Z,44.32
2019-04-16T04:18:15.040Z,44.27
2019-04-16T04:20:44.308Z,44.34
2019-04-16T04:23:13.605Z,44.63
2019-04-16T04:25:42.908Z,44.32
2019-04-16T04:28:12.221Z,44.57
2019-04-16T04:30:41.480Z,44.28
2019-04-16T04:33:15.943Z,44.03
2019-04-16T04:35:45.216Z,44.32
2019-04-16T04:38:15.746Z,44.48
2019-04-16T04:40:50.493Z,44.72
2019-04-16T04:43:16.169Z,44.85
2019-04-16T04:45:45.635Z,44.98
2019-04-16T04:48:14.905Z,45.62
2019-04-16T04:50:44.339Z,45.92
2019-04-16T04:53:15.621Z,45.87
2019-04-16T04:55:45.857Z,46.17
2019-04-16T04:58:17.443Z,46.21
2019-04-16T05:00:48.705Z,46.21
2019-04-16T05:03:38.885Z,46.25
2019-04-16T05:06:10.052Z,46.26
2019-04-16T05:08:40.445Z,46.54
2019-04-16T05:11:15.854Z,46.14
2019-04-16T05:13:45.693Z,46.25
2019-04-16T05:16:15.920Z,45.74
2019-04-16T05:18:47.852Z,46.05
2019-04-16T05:21:19.512Z,45.92
2019-04-16T05:23:57.049Z,45.91
2019-04-16T05:26:23.477Z,45.71
2019-04-16T05:28:53.152Z,45.55
2019-04-16T05:31:25.601Z,45.50
2019-04-16T05:33:54.703Z,45.58
2019-04-16T05:36:24.441Z,45.70
2019-04-16T05:38:55.734Z,45.42
2019-04-16T05:41:25.547Z,44.89
2019-04-16T05:43:55.446Z,44.75
2019-04-16T05:46:25.194Z,44.46
2019-04-16T05:48:54.935Z,44.07
2019-04-16T05:51:24.231Z,44.44
2019-04-16T05:53:55.831Z,44.23
2019-04-16T05:56:29.737Z,44.12
2019-04-16T05:58:59.633Z,44.30
2019-04-16T06:01:45.518Z,44.18
2019-04-16T06:04:15.247Z,43.84
2019-04-16T06:06:45.736Z,43.41
2019-04-16T06:09:15.025Z,43.16
2019-04-16T06:11:44.605Z,43.08
2019-04-16T06:14:49.577Z,42.80
2019-04-16T06:17:50.349Z,42.35
2019-04-16T06:20:28.249Z,42.66
2019-04-16T06:23:12.192Z,42.33
2019-04-16T06:26:02.731Z,41.94
2019-04-16T06:28:54.941Z,41.62
2019-04-16T06:31:42.822Z,40.68
2019-04-16T06:34:37.090Z,39.73
2019-04-16T06:37:14.628Z,38.93
2019-04-16T06:39:54.366Z,36.75
2019-04-16T06:42:32.796Z,35.10
2019-04-16T06:45:05.946Z,31.23
2019-04-16T06:48:03.260Z,31.35
2019-04-16T06:51:03.774Z,27.79
2019-04-16T06:53:56.698Z,27.15
2019-04-16T06:56:52.685Z,26.30
2019-04-16T06:59:39.795Z,26.30
2019-04-16T07:02:25.397Z,28.39
2019-04-16T07:05:19.443Z,25.75
2019-04-16T07:08:06.552Z,25.48
2019-04-16T07:10:44.743Z,28.24
2019-04-16T07:13:11.403Z,26.03
2019-04-16T07:15:40.870Z,26.54
2019-04-16T07:18:11.721Z,24.57
2019-04-16T07:20:42.291Z,24.98
2019-04-16T07:23:12.030Z,25.03
2019-04-16T07:25:43.105Z,23.99
2019-04-16T07:28:34.842Z,22.19
2019-04-16T07:31:33.415Z,20.18
2019-04-16T07:34:11.007Z,22.27
2019-04-16T07:37:00.867Z,22.59
2019-04-16T07:39:51.111Z,23.51
2019-04-16T07:42:28.192Z,22.19
2019-04-16T07:45:22.549Z,20.64
2019-04-16T07:48:06.197Z,21.62
2019-04-16T07:50:53.019Z,22.12
2019-04-16T07:53:48.122Z,21.39
2019-04-16T07:56:20.572Z,21.62
2019-04-16T07:58:49.845Z,21.79
2019-04-16T08:01:19.281Z,21.67
2019-04-16T08:03:48.616Z,19.60
2019-04-16T08:06:17.884Z,19.77
2019-04-16T08:08:47.343Z,21.09
2019-04-16T08:11:16.640Z,21.38
2019-04-16T08:13:47.006Z,20.14
2019-04-16T08:16:17.761Z,19.00
2019-04-16T08:18:51.042Z,18.57
2019-04-16T08:21:22.729Z,20.14
2019-04-16T08:24:00.993Z,20.56
2019-04-16T08:26:30.290Z,19.87
2019-04-16T08:28:59.584Z,19.60
2019-04-16T08:31:29.832Z,19.28
2019-04-16T08:33:59.128Z,21.03
2019-04-16T08:36:28.518Z,18.79
2019-04-16T08:38:57.811Z,18.20
2019-04-16T08:41:27.138Z,18.35
2019-04-16T08:43:56.448Z,20.03
2019-04-16T08:46:28.220Z,19.82
2019-04-16T08:48:56.760Z,19.41
2019-04-16T08:51:30.883Z,20.33
2019-04-16T08:53:57.105Z,19.89
2019-04-16T08:56:26.404Z,20.67
2019-04-16T08:59:00.038Z,19.32
2019-04-16T09:01:30.712Z,20.38
2019-04-16T09:04:02.685Z,18.56
2019-04-16T09:06:32.528Z,20.72
2019-04-16T09:09:15.543Z,19.67
2019-04-16T09:11:48.475Z,18.76
2019-04-16T09:14:20.976Z,18.01
2019-04-16T09:17:11.852Z,18.04
2019-04-16T09:19:44.107Z,20.01
2019-04-16T09:22:16.811Z,18.40
2019-04-16T09:25:14.042Z,18.37
2019-04-16T09:27:45.775Z,18.13
2019-04-16T09:30:40.223Z,18.05
2019-04-16T09:33:19.597Z,19.30
2019-04-16T09:36:07.868Z,18.79
2019-04-16T09:38:45.587Z,17.05
2019-04-16T09:41:25.265Z,19.22
2019-04-16T09:43:57.892Z,19.39
2019-04-16T09:46:49.607Z,18.50
2019-04-16T09:49:04.717Z,18.62
2019-04-16T09:51:32.139Z,17.91
2019-04-16T09:54:02.975Z,17.97
2019-04-16T09:56:32.849Z,18.36
2019-04-16T09:59:31.068Z,18.96
2019-04-16T10:02:32.973Z,18.69
2019-04-16T10:05:02.577Z,18.59
2019-04-16T10:10:00.409Z,17.85
2019-04-16T10:12:29.726Z,19.15
2019-04-16T10:15:00.617Z,17.55
2019-04-16T10:17:30.364Z,18.12
2019-04-16T10:19:59.709Z,18.10
2019-04-16T10:22:29.009Z,18.87
2019-04-16T10:25:15.488Z,18.63
2019-04-16T10:27:49.598Z,19.57
2019-04-16T10:30:24.867Z,19.46
2019-04-16T10:32:54.213Z,19.37
2019-04-16T10:35:23.528Z,18.49
2019-04-16T10:37:52.912Z,18.77
2019-04-16T10:40:31.978Z,20.68
2019-04-16T10:43:20.420Z,19.88
2019-04-16T10:45:58.602Z,20.52
2019-04-16T10:48:46.825Z,20.62
2019-04-16T10:51:38.110Z,20.12
2019-04-16T10:54:36.871Z,19.96
2019-04-16T10:57:38.308Z,20.18
2019-04-16T11:00:24.951Z,20.35
2019-04-16T11:02:59.532Z,19.26
2019-04-16T11:05:43.301Z,20.03
2019-04-16T11:08:14.594Z,20.16
2019-04-16T11:10:46.479Z,19.45
2019-04-16T11:13:24.300Z,18.76
2019-04-16T11:15:54.679Z,18.62
2019-04-16T11:18:23.926Z,19.43
2019-04-16T11:20:53.244Z,19.72
2019-04-16T11:23:22.543Z,20.46
2019-04-16T11:25:51.811Z,19.85
2019-04-16T11:28:21.193Z,19.81
2019-04-16T11:30:53.144Z,19.17
2019-04-16T11:33:22.486Z,17.75
2019-04-16T11:35:53.154Z,18.08
2019-04-16T11:38:22.792Z,18.86
2019-04-16T11:40:52.063Z,18.51
2019-04-16T11:43:21.351Z,18.15
2019-04-16T11:45:50.690Z,17.94
2019-04-16T11:48:19.963Z,19.10
2019-04-16T11:50:49.233Z,19.02
2019-04-16T11:53:20.843Z,18.98
2019-04-16T11:55:50.196Z,18.23
2019-04-16T11:58:38.444Z,18.82
2019-04-16T12:01:26.712Z,18.72
2019-04-16T12:04:03.248Z,18.33
2019-04-16T12:06:48.641Z,18.13
2019-04-16T12:09:35.810Z,19.09
2019-04-16T12:12:15.188Z,18.53
2019-04-16T12:15:21.741Z,18.25
2019-04-16T12:18:21.917Z,18.58
2019-04-16T12:21:05.994Z,19.21
2019-04-16T12:23:51.377Z,18.91
2019-04-16T12:26:35.134Z,18.19
2019-04-16T12:29:14.935Z,17.74
2019-04-16T12:32:04.321Z,18.29
2019-04-16T12:35:10.129Z,18.43
2019-04-16T12:37:58.126Z,17.81
2019-04-16T12:40:59.626Z,18.09
2019-04-16T12:43:51.623Z,18.03
2019-04-16T12:46:37.661Z,18.58
2019-04-16T12:49:25.940Z,19.01
2019-04-16T12:52:22.995Z,19.57
2019-04-16T12:55:31.767Z,19.24
2019-04-16T12:58:13.283Z,19.42
2019-04-16T13:01:03.191Z,20.07
2019-04-16T13:03:46.573Z,19.66
2019-04-16T13:06:27.013Z,19.69
2019-04-16T13:09:26.234Z,19.71
2019-04-16T13:12:32.784Z,19.80
2019-04-16T13:15:23.965Z,20.68
2019-04-16T13:18:11.498Z,20.31
2019-04-16T13:21:05.160Z,20.52
2019-04-16T13:23:56.165Z,21.14
2019-04-16T13:26:28.148Z,21.24
2019-04-16T13:28:57.838Z,20.96
2019-04-16T13:31:27.120Z,20.82
2019-04-16T13:33:57.566Z,20.17
2019-04-16T13:36:28.096Z,20.45
2019-04-16T13:39:20.849Z,20.69
2019-04-16T13:41:51.943Z,20.44
2019-04-16T13:44:22.701Z,20.29
2019-04-16T13:46:51.978Z,20.54
2019-04-16T13:49:31.421Z,20.67
2019-04-16T13:51:58.076Z,20.32
2019-04-16T13:54:43.211Z,20.72
2019-04-16T13:57:18.922Z,20.94
2019-04-16T14:00:07.175Z,21.10
2019-04-16T14:02:47.921Z,21.12
2019-04-16T14:05:17.597Z,20.82
2019-04-16T14:07:46.940Z,20.77
2019-04-16T14:10:16.502Z,20.86
2019-04-16T14:12:45.835Z,21.00
2019-04-16T14:15:31.272Z,20.96
2019-04-16T14:17:52.932Z,21.39
2019-04-16T14:20:19.059Z,21.10
2019-04-16T14:22:53.308Z,21.41
2019-04-16T14:25:19.583Z,21.12
2019-04-16T14:27:48.986Z,21.21
2019-04-16T14:30:23.426Z,21.22
2019-04-16T14:32:52.860Z,21.38
2019-04-16T14:35:33.330Z,21.51
2019-04-16T14:37:58.728Z,21.36
2019-04-16T14:40:28.883Z,21.08
2019-04-16T14:42:58.651Z,21.22
2019-04-16T14:45:57.491Z,21.61
2019-04-16T14:48:19.596Z,21.61
2019-04-16T14:50:48.962Z,21.34
2019-04-16T14:53:31.783Z,21.54
2019-04-16T14:56:10.674Z,21.57
2019-04-16T14:59:02.081Z,21.42
2019-04-16T15:01:37.627Z,21.35
2019-04-16T15:04:24.906Z,20.61
2019-04-16T15:07:23.809Z,20.61
2019-04-16T15:10:15.776Z,21.56
2019-04-16T15:13:04.047Z,21.56
2019-04-16T15:16:08.437Z,21.13
2019-04-16T15:18:33.836Z,21.13
2019-04-16T15:21:20.716Z,21.32
2019-04-16T15:24:13.194Z,21.13
2019-04-16T15:27:08.652Z,21.28
2019-04-16T15:30:06.256Z,21.24
2019-04-16T15:33:07.586Z,21.02
2019-04-16T15:35:43.739Z,21.11
2019-04-16T15:38:30.398Z,21.20
2019-04-16T15:41:14.452Z,21.49
2019-04-16T15:44:03.108Z,22.31
2019-04-16T15:46:51.772Z,22.31
2019-04-16T15:49:28.435Z,22.25
2019-04-16T15:52:09.809Z,22.03
2019-04-16T15:55:13.927Z,22.23
2019-04-16T15:58:07.806Z,22.46
2019-04-16T16:01:04.535Z,22.46
2019-04-16T16:04:02.481Z,22.28
2019-04-16T16:06:33.328Z,22.42
2019-04-16T16:09:08.885Z,22.24
2019-04-16T16:11:48.044Z,22.37
2019-04-16T16:14:18.277Z,22.22
2019-04-16T16:17:06.286Z,22.43
2019-04-16T16:19:35.899Z,22.55
2019-04-16T16:22:05.348Z,22.36
2019-04-16T16:24:41.765Z,22.43
2019-04-16T16:27:07.562Z,22.25
2019-04-16T16:29:40.741Z,22.32
2019-04-16T16:32:10.134Z,22.19
2019-04-16T16:34:39.900Z,22.64
2019-04-16T16:37:10.709Z,22.68
2019-04-16T16:39:40.090Z,22.82
2019-04-16T16:42:10.910Z,22.98
2019-04-16T16:44:40.250Z,22.89
2019-04-16T16:47:31.659Z,22.99
2019-04-16T16:50:01.184Z,23.33
2019-04-16T16:52:50.859Z,23.49
2019-04-16T16:55:32.030Z,23.88
2019-04-16T16:58:08.983Z,24.17
2019-04-16T17:01:05.080Z,24.33
2019-04-16T17:04:13.033Z,24.49
2019-04-16T17:06:42.458Z,24.47
2019-04-16T17:09:23.114Z,24.52
2019-04-16T17:11:55.705Z,24.84
2019-04-16T17:14:23.569Z,25.14
2019-04-16T17:16:52.882Z,25.03
2019-04-16T17:19:22.174Z,25.36
2019-04-16T17:21:51.674Z,25.38
2019-04-16T17:24:21.550Z,25.56
2019-04-16T17:26:51.181Z,25.50
2019-04-16T17:29:20.562Z,25.58
2019-04-16T17:31:50.947Z,25.83
2019-04-16T17:34:20.288Z,25.87
2019-04-16T17:36:49.668Z,26.12
2019-04-16T17:39:32.947Z,25.97
2019-04-16T17:42:05.759Z,26.22
2019-04-16T17:44:55.125Z,26.35
2019-04-16T17:47:46.499Z,26.45
2019-04-16T17:50:26.686Z,26.48
2019-04-16T17:53:11.723Z,26.66
2019-04-16T17:55:59.238Z,26.90
2019-04-16T17:58:36.551Z,26.87
2019-04-16T18:01:30.983Z,26.99
2019-04-16T18:04:11.619Z,26.95
2019-04-16T18:07:03.267Z,27.49
2019-04-16T18:09:39.563Z,27.29
2019-04-16T18:12:26.595Z,27.38
2019-04-16T18:15:19.034Z,27.39
2019-04-16T18:18:01.872Z,27.50
2019-04-16T18:21:05.477Z,27.54
2019-04-16T18:24:00.788Z,27.21
2019-04-16T18:26:52.618Z,27.61
2019-04-16T18:29:25.747Z,27.71
2019-04-16T18:32:04.362Z,28.10
2019-04-16T18:34:56.901Z,28.40
2019-04-16T18:37:50.030Z,28.48
2019-04-16T18:40:28.064Z,27.75
2019-04-16T18:43:05.365Z,27.93
2019-04-16T18:45:59.980Z,27.89
2019-04-16T18:48:32.577Z,27.88
2019-04-16T18:51:02.076Z,28.01
2019-04-16T18:53:33.287Z,27.95
2019-04-16T18:56:02.627Z,28.06
2019-04-16T18:58:31.925Z,28.03
2019-04-16T19:01:05.191Z,28.16
2019-04-16T19:03:34.452Z,28.27
2019-04-16T19:06:03.975Z,28.40
2019-04-16T19:08:41.469Z,28.32
2019-04-16T19:11:05.816Z,28.49
2019-04-16T19:13:35.157Z,28.65
2019-04-16T19:16:04.589Z,28.64
2019-04-16T19:18:34.521Z,28.71
2019-04-16T19:21:04.416Z,28.91
2019-04-16T19:23:35.803Z,28.65
2019-04-16T19:26:08.335Z,28.66
2019-04-16T19:28:40.425Z,28.93
2019-04-16T19:31:11.926Z,29.37
2019-04-16T19:33:43.421Z,29.53
2019-04-16T19:36:15.102Z,29.78
2019-04-16T19:38:46.552Z,29.52
2019-04-16T19:41:23.188Z,29.69
2019-04-16T19:43:51.294Z,29.90
2019-04-16T19:46:22.534Z,29.73
2019-04-16T19:48:57.048Z,29.80
2019-04-16T19:51:32.160Z,30.11
2019-04-16T19:54:11.593Z,30.00
2019-04-16T19:56:43.147Z,30.11
2019-04-16T19:59:14.587Z,30.53
2019-04-16T20:01:46.239Z,30.58
2019-04-16T20:04:17.539Z,30.63
2019-04-16T20:06:49.272Z,30.95
2019-04-16T20:09:20.855Z,31.02
2019-04-16T20:11:55.374Z,31.01
2019-04-16T20:14:26.171Z,31.20
2019-04-16T20:16:57.379Z,31.27
2019-04-16T20:19:28.961Z,31.09
2019-04-16T20:22:00.334Z,31.30
2019-04-16T20:24:30.661Z,31.11
2019-04-16T20:27:04.919Z,31.18
2019-04-16T20:29:33.207Z,31.21
2019-04-16T20:32:02.738Z,31.43
2019-04-16T20:34:32.749Z,31.40
2019-04-16T20:37:02.470Z,31.37
2019-04-16T20:39:33.263Z,31.37
2019-04-16T20:42:03.005Z,31.55
2019-04-16T20:44:32.666Z,31.69
2019-04-16T20:47:07.986Z,31.68
2019-04-16T20:49:37.206Z,31.87
2019-04-16T20:52:08.395Z,32.14
2019-04-16T20:54:44.096Z,31.96
2019-04-16T20:57:13.022Z,32.41
2019-04-16T20:59:42.700Z,32.40
2019-04-16T21:02:14.875Z,32.51
2019-04-16T21:04:44.424Z,32.62
2019-04-16T21:07:15.334Z,32.76
2019-04-16T21:09:46.364Z,32.89
2019-04-16T21:12:17.868Z,33.06
2019-04-16T21:14:50.858Z,33.12
2019-04-16T21:17:21.085Z,32.93
2019-04-16T21:19:50.826Z,32.95
2019-04-16T21:22:24.885Z,33.17
2019-04-16T21:24:53.104Z,33.28
2019-04-16T21:27:24.323Z,33.14
2019-04-16T21:29:53.679Z,33.32
2019-04-16T21:32:54.611Z,33.25
2019-04-16T21:35:32.068Z,33.17
2019-04-16T21:38:12.791Z,33.39
2019-04-16T21:40:43.883Z,33.24
2019-04-16T21:43:13.592Z,33.11
2019-04-16T21:45:45.570Z,33.43
2019-04-16T21:48:14.240Z,33.35
2019-04-16T21:50:44.596Z,33.29
2019-04-16T21:53:14.686Z,33.38
2019-04-16T21:55:43.975Z,33.39
2019-04-16T21:58:17.180Z,33.63
2019-04-16T22:01:14.836Z,33.66
2019-04-16T22:03:51.584Z,33.67
2019-04-16T22:06:21.064Z,33.55
2019-04-16T22:08:50.384Z,33.43
2019-04-16T22:11:19.753Z,33.54
2019-04-16T22:13:50.712Z,33.57
2019-04-16T22:16:20.651Z,33.58
2019-04-16T22:18:49.911Z,33.76
2019-04-16T22:21:19.241Z,33.93
2019-04-16T22:23:50.424Z,33.89
2019-04-16T22:26:19.604Z,33.83
2019-04-16T22:28:49.011Z,33.55
2019-04-16T22:31:20.796Z,33.72
2019-04-16T22:33:49.325Z,33.98
2019-04-16T22:36:18.589Z,34.02
2019-04-16T22:38:51.121Z,33.94
2019-04-16T22:41:29.246Z,34.06
2019-04-16T22:44:20.280Z,33.80
2019-04-16T22:47:03.985Z,34.28
2019-04-16T22:49:34.734Z,34.07
2019-04-16T22:52:04.018Z,34.10
2019-04-16T22:54:33.351Z,33.64
2019-04-16T22:57:11.042Z,33.99
2019-04-16T22:59:40.390Z,34.03
2019-04-16T23:02:16.761Z,34.40
2019-04-16T23:04:46.265Z,34.24
2019-04-16T23:07:15.566Z,34.51
2019-04-16T23:09:45.719Z,34.50
2019-04-16T23:12:15.925Z,34.60
2019-04-16T23:14:45.206Z,34.52
2019-04-16T23:17:14.530Z,34.49
2019-04-16T23:19:43.806Z,34.70
2019-04-16T23:22:15.433Z,34.65
2019-04-16T23:24:44.768Z,34.79
2019-04-16T23:27:14.066Z,34.90
2019-04-16T23:29:47.293Z,34.90
2019-04-16T23:32:14.373Z,34.93
2019-04-16T23:34:43.653Z,34.94
2019-04-16T23:37:12.962Z,35.07
2019-04-16T23:39:42.303Z,34.88
2019-04-16T23:42:11.672Z,34.96
2019-04-16T23:44:54.713Z,35.16
2019-04-16T23:47:46.610Z,35.50
2019-04-16T23:50:44.355Z,35.50
2019-04-16T23:53:09.008Z,35.71
2019-04-16T23:56:10.027Z,35.59
2019-04-16T23:58:45.199Z,35.75
